createdAt,value
2019-01-17T00:02:14.917Z,33.30
2019-01-17T00:04:57.391Z,29.93
2019-01-17T00:07:45.876Z,25.80
2019-01-17T00:10:40.076Z,26.87
2019-01-17T00:13:27.299Z,28.23
2019-01-17T00:16:24.843Z,28.93
2019-01-17T00:19:25.536Z,32.17
2019-01-17T00:22:19.798Z,27.33
2019-01-17T00:25:23.726Z,30.90
2019-01-17T00:28:10.800Z,26.83
2019-01-17T00:31:07.021Z,26.10
2019-01-17T00:34:01.281Z,29.40
2019-01-17T00:37:07.893Z,24.10
2019-01-17T00:39:55.410Z,24.77
2019-01-17T00:42:43.892Z,25.00
2019-01-17T00:45:30.867Z,24.90
2019-01-17T00:48:19.318Z,21.53
2019-01-17T00:51:16.937Z,10.03
2019-01-17T00:54:09.044Z,12.50
2019-01-17T00:56:53.380Z,14.53
2019-01-17T00:59:44.720Z,11.97
2019-01-17T01:02:45.379Z,13.30
2019-01-17T01:05:43.675Z,9.93
2019-01-17T01:08:31.052Z,9.17
2019-01-17T01:11:25.840Z,9.53
2019-01-17T01:14:13.392Z,8.27
2019-01-17T01:17:13.134Z,9.77
2019-01-17T01:20:16.984Z,9.47
2019-01-17T01:23:23.609Z,9.90
2019-01-17T01:26:11.890Z,8.13
2019-01-17T01:28:59.105Z,8.33
2019-01-17T01:31:59.805Z,9.53
2019-01-17T01:34:45.576Z,8.30
2019-01-17T01:37:34.071Z,7.13
2019-01-17T01:40:11.212Z,5.00
2019-01-17T01:42:58.594Z,5.10
2019-01-17T01:46:05.111Z,5.87
2019-01-17T01:48:52.158Z,3.13
2019-01-17T01:51:46.827Z,5.20
2019-01-17T01:54:21.886Z,7.53
2019-01-17T01:56:47.528Z,4.30
2019-01-17T01:59:17.056Z,3.93
2019-01-17T02:01:46.601Z,4.90
2019-01-17T02:04:16.225Z,4.17
2019-01-17T02:06:45.692Z,6.93
2019-01-17T02:09:15.224Z,5.90
2019-01-17T02:11:44.881Z,5.30
2019-01-17T02:14:14.612Z,4.60
2019-01-17T02:16:44.149Z,3.63
2019-01-17T02:19:13.808Z,5.97
2019-01-17T02:21:43.354Z,5.63
2019-01-17T02:24:12.892Z,5.13
2019-01-17T02:26:42.483Z,5.57
2019-01-17T02:29:12.358Z,8.67
2019-01-17T02:31:41.891Z,4.80
2019-01-17T02:34:11.364Z,6.33
2019-01-17T02:36:41.401Z,3.93
2019-01-17T02:39:11.240Z,7.90
2019-01-17T02:41:40.776Z,3.70
2019-01-17T02:44:10.618Z,4.53
2019-01-17T02:46:40.230Z,5.73
2019-01-17T02:49:10.122Z,5.33
2019-01-17T02:51:39.659Z,4.17
2019-01-17T02:54:09.184Z,4.90
2019-01-17T02:56:39.311Z,6.40
2019-01-17T02:59:09.249Z,4.73
2019-01-17T03:01:38.724Z,4.30
2019-01-17T03:04:08.292Z,5.57
2019-01-17T03:06:37.854Z,4.70
2019-01-17T03:09:08.300Z,4.23
2019-01-17T03:11:37.936Z,6.03
2019-01-17T03:14:07.443Z,7.93
2019-01-17T03:16:36.962Z,3.80
2019-01-17T03:19:06.577Z,5.80
2019-01-17T03:21:36.101Z,6.33
2019-01-17T03:24:05.636Z,4.87
2019-01-17T03:26:35.147Z,7.47
2019-01-17T03:29:04.723Z,5.60
2019-01-17T03:31:34.584Z,6.13
2019-01-17T03:34:04.086Z,5.80
2019-01-17T03:36:33.648Z,6.60
2019-01-17T03:39:04.796Z,5.67
2019-01-17T03:41:34.330Z,6.17
2019-01-17T03:44:03.923Z,7.03
2019-01-17T03:46:33.419Z,7.33
2019-01-17T03:49:02.979Z,6.60
2019-01-17T03:51:32.879Z,7.80
2019-01-17T03:54:02.480Z,10.23
2019-01-17T03:56:31.981Z,7.27
2019-01-17T03:59:02.049Z,7.47
2019-01-17T04:01:31.568Z,7.03
2019-01-17T04:04:01.212Z,8.10
2019-01-17T04:06:30.748Z,10.00
2019-01-17T04:09:00.267Z,8.63
2019-01-17T04:11:29.932Z,10.30
2019-01-17T04:13:59.439Z,8.20
2019-01-17T04:16:28.972Z,9.40
2019-01-17T04:18:58.499Z,9.70
2019-01-17T04:21:28.031Z,9.30
2019-01-17T04:23:57.528Z,9.60
2019-01-17T04:26:27.464Z,10.20
2019-01-17T04:28:57.162Z,11.60
2019-01-17T04:31:26.682Z,13.07
2019-01-17T04:33:56.694Z,12.40
2019-01-17T04:36:26.276Z,12.50
2019-01-17T04:38:56.174Z,15.87
2019-01-17T04:41:25.690Z,13.73
2019-01-17T04:43:55.546Z,15.17
2019-01-17T04:46:25.277Z,16.67
2019-01-17T04:48:55.347Z,19.60
2019-01-17T04:51:24.833Z,17.20
2019-01-17T04:53:55.154Z,16.67
2019-01-17T04:56:25.056Z,18.23
2019-01-17T04:58:55.150Z,16.43
2019-01-17T05:01:24.782Z,19.10
2019-01-17T05:03:54.365Z,17.10
2019-01-17T05:06:23.930Z,19.27
2019-01-17T05:08:53.595Z,17.00
2019-01-17T05:11:23.399Z,20.20
2019-01-17T05:13:52.948Z,16.53
2019-01-17T05:16:22.484Z,18.97
2019-01-17T05:18:52.029Z,16.63
2019-01-17T05:21:21.572Z,17.93
2019-01-17T05:23:51.135Z,19.47
2019-01-17T05:26:20.643Z,17.60
2019-01-17T05:28:50.255Z,19.27
2019-01-17T05:31:19.789Z,21.87
2019-01-17T05:33:49.453Z,19.10
2019-01-17T05:36:19.288Z,19.87
2019-01-17T05:38:48.838Z,22.63
2019-01-17T05:41:18.343Z,19.10
2019-01-17T05:43:47.891Z,22.73
2019-01-17T05:46:17.398Z,19.30
2019-01-17T05:48:46.928Z,24.23
2019-01-17T05:51:16.477Z,20.27
2019-01-17T05:53:46.328Z,20.90
2019-01-17T05:56:16.016Z,22.97
2019-01-17T05:58:45.564Z,21.73
2019-01-17T06:01:15.090Z,24.87
2019-01-17T06:03:44.629Z,20.13
2019-01-17T06:06:14.578Z,24.27
2019-01-17T06:08:44.315Z,19.70
2019-01-17T06:11:13.841Z,22.70
2019-01-17T06:13:43.384Z,26.93
2019-01-17T06:16:13.266Z,25.50
2019-01-17T06:18:42.796Z,24.60
2019-01-17T06:21:12.711Z,25.47
2019-01-17T06:23:42.223Z,22.13
2019-01-17T06:26:11.782Z,22.87
2019-01-17T06:28:42.041Z,22.43
2019-01-17T06:31:11.560Z,26.93
2019-01-17T06:33:41.094Z,25.07
2019-01-17T06:36:10.888Z,23.90
2019-01-17T06:38:40.464Z,27.80
2019-01-17T06:41:09.949Z,25.00
2019-01-17T06:43:40.369Z,35.10
2019-01-17T06:46:10.289Z,30.10
2019-01-17T06:48:39.808Z,29.37
2019-01-17T06:51:09.332Z,28.07
2019-01-17T06:53:38.896Z,27.80
2019-01-17T06:56:08.409Z,25.97
2019-01-17T06:58:37.957Z,33.67
2019-01-17T07:01:07.493Z,34.87
2019-01-17T07:03:37.594Z,30.87
2019-01-17T07:06:07.145Z,37.40
2019-01-17T07:08:36.692Z,37.70
2019-01-17T07:11:07.027Z,34.97
2019-01-17T07:13:36.596Z,28.20
2019-01-17T07:16:06.110Z,35.70
2019-01-17T07:18:35.668Z,30.97
2019-01-17T07:21:05.190Z,30.47
2019-01-17T07:23:34.728Z,36.77
2019-01-17T07:26:04.300Z,32.90
2019-01-17T07:28:34.937Z,38.13
2019-01-17T07:31:04.564Z,33.00
2019-01-17T07:33:34.122Z,32.67
2019-01-17T07:36:03.623Z,31.40
2019-01-17T07:38:33.138Z,37.30
2019-01-17T07:41:03.047Z,34.00
2019-01-17T07:43:32.884Z,36.17
2019-01-17T07:46:02.452Z,35.90
2019-01-17T07:48:31.955Z,39.97
2019-01-17T07:51:01.531Z,31.77
2019-01-17T07:53:31.727Z,35.40
2019-01-17T07:56:01.256Z,35.47
2019-01-17T07:58:30.816Z,41.70
2019-01-17T08:01:00.347Z,40.73
2019-01-17T08:03:30.581Z,38.27
2019-01-17T08:06:00.154Z,39.03
2019-01-17T08:08:29.682Z,42.17
2019-01-17T08:10:59.183Z,37.90
2019-01-17T08:13:28.712Z,37.57
2019-01-17T08:15:58.983Z,39.40
2019-01-17T08:18:28.682Z,35.30
2019-01-17T08:20:59.283Z,39.50
2019-01-17T08:23:34.390Z,36.30
2019-01-17T08:26:00.073Z,44.17
2019-01-17T08:28:29.739Z,46.63
2019-01-17T08:30:59.263Z,45.07
2019-01-17T08:33:29.289Z,42.43
2019-01-17T08:35:58.823Z,45.43
2019-01-17T08:38:28.792Z,41.60
2019-01-17T08:40:58.342Z,42.47
2019-01-17T08:43:27.867Z,46.30
2019-01-17T08:45:57.411Z,41.53
2019-01-17T08:48:26.901Z,47.63
2019-01-17T08:50:56.482Z,42.67
2019-01-17T08:53:28.346Z,40.53
2019-01-17T08:56:00.914Z,40.13
2019-01-17T08:58:29.344Z,42.10
2019-01-17T09:00:58.904Z,44.57
2019-01-17T09:03:29.198Z,36.90
2019-01-17T09:05:58.754Z,40.67
2019-01-17T09:08:28.620Z,34.50
2019-01-17T09:10:58.148Z,39.80
2019-01-17T09:13:27.676Z,40.57
2019-01-17T09:15:57.744Z,41.80
2019-01-17T09:18:27.311Z,38.47
2019-01-17T09:20:56.969Z,40.00
2019-01-17T09:23:26.464Z,36.53
2019-01-17T09:25:55.999Z,37.13
2019-01-17T09:28:25.844Z,36.80
2019-01-17T09:30:55.389Z,40.03
2019-01-17T09:33:25.260Z,40.70
2019-01-17T09:35:54.933Z,38.30
2019-01-17T09:38:24.405Z,35.73
2019-01-17T09:40:53.936Z,39.63
2019-01-17T09:43:23.484Z,38.47
2019-01-17T09:45:52.996Z,42.53
2019-01-17T09:48:22.635Z,40.63
2019-01-17T09:50:52.188Z,40.17
2019-01-17T09:53:21.856Z,33.20
2019-01-17T09:55:51.728Z,36.00
2019-01-17T09:58:21.572Z,35.93
2019-01-17T10:00:51.132Z,35.53
2019-01-17T10:03:21.005Z,36.00
2019-01-17T10:05:50.596Z,20.90
2019-01-17T10:08:20.091Z,6.23
2019-01-17T10:10:49.615Z,3.70
2019-01-17T10:13:19.097Z,2.83
2019-01-17T10:15:56.914Z,2.70
2019-01-17T10:19:22.460Z,2.70
2019-01-17T10:22:19.571Z,2.40
2019-01-17T10:25:32.318Z,3.80
2019-01-17T10:29:07.280Z,3.17
2019-01-17T10:32:02.456Z,3.33
2019-01-17T10:35:02.197Z,3.90
2019-01-17T10:38:01.588Z,2.87
2019-01-17T10:40:46.941Z,2.80
2019-01-17T10:43:59.959Z,3.37
2019-01-17T10:46:54.190Z,5.30
2019-01-17T10:49:47.181Z,2.57
2019-01-17T10:52:52.354Z,3.37
2019-01-17T10:55:50.072Z,2.73
2019-01-17T10:59:06.505Z,3.73
2019-01-17T11:02:23.480Z,3.93
2019-01-17T11:05:06.357Z,4.60
2019-01-17T11:08:29.039Z,5.27
2019-01-17T11:11:34.607Z,5.23
2019-01-17T11:14:47.426Z,9.47
2019-01-17T11:18:01.552Z,7.10
2019-01-17T11:21:22.932Z,6.37
2019-01-17T11:24:12.795Z,7.07
2019-01-17T11:27:18.182Z,7.90
2019-01-17T11:30:28.058Z,9.00
2019-01-17T11:33:37.226Z,11.60
2019-01-17T11:36:45.169Z,9.93
2019-01-17T11:39:25.940Z,9.90
2019-01-17T11:42:37.176Z,12.00
2019-01-17T11:45:57.809Z,9.60
2019-01-17T11:49:11.331Z,11.30
2019-01-17T11:52:24.643Z,12.40
2019-01-17T11:55:26.181Z,9.83
2019-01-17T11:58:12.263Z,12.67
2019-01-17T12:01:13.613Z,14.60
2019-01-17T12:04:27.216Z,13.57
2019-01-17T12:06:56.833Z,11.37
2019-01-17T12:09:26.358Z,9.90
2019-01-17T12:11:56.031Z,16.27
2019-01-17T12:14:25.545Z,10.60
2019-01-17T12:16:55.051Z,12.27
2019-01-17T12:19:24.944Z,10.77
2019-01-17T12:21:54.807Z,11.10
2019-01-17T12:24:24.348Z,18.20
2019-01-17T12:26:53.840Z,12.27
2019-01-17T12:29:23.411Z,14.37
2019-01-17T12:31:52.925Z,11.93
2019-01-17T12:34:22.452Z,14.00
2019-01-17T12:36:51.993Z,11.00
2019-01-17T12:39:21.517Z,9.30
2019-01-17T12:41:51.163Z,10.43
2019-01-17T12:44:20.724Z,12.43
2019-01-17T12:46:50.227Z,10.87
2019-01-17T12:49:19.734Z,10.70
2019-01-17T12:51:49.244Z,7.80
2019-01-17T12:54:19.681Z,6.87
2019-01-17T12:56:54.038Z,7.10
2019-01-17T12:59:20.737Z,7.27
2019-01-17T13:01:50.546Z,7.47
2019-01-17T13:04:20.121Z,6.50
2019-01-17T13:06:49.651Z,6.30
2019-01-17T13:09:19.575Z,8.40
2019-01-17T13:11:49.078Z,7.30
2019-01-17T13:14:18.784Z,4.37
2019-01-17T13:16:48.248Z,4.20
2019-01-17T13:19:18.192Z,6.00
2019-01-17T13:21:47.761Z,5.43
2019-01-17T13:24:18.117Z,3.43
2019-01-17T13:26:48.034Z,2.70
2019-01-17T13:29:17.901Z,3.47
2019-01-17T13:31:47.419Z,5.60
2019-01-17T13:34:17.065Z,6.67
2019-01-17T13:36:46.988Z,7.60
2019-01-17T13:39:16.502Z,6.57
2019-01-17T13:41:48.040Z,5.03
2019-01-17T13:44:17.560Z,2.90
2019-01-17T13:46:47.032Z,4.53
2019-01-17T13:49:16.579Z,5.47
2019-01-17T13:51:46.141Z,17.33
2019-01-17T13:54:15.675Z,40.80
2019-01-17T13:56:45.212Z,14.53
2019-01-17T13:59:14.770Z,11.80
2019-01-17T14:01:44.399Z,3.73
2019-01-17T14:04:13.884Z,3.83
2019-01-17T14:06:46.835Z,4.70
2019-01-17T14:09:16.469Z,10.27
2019-01-17T14:11:45.970Z,6.73
2019-01-17T14:14:15.525Z,8.67
2019-01-17T14:16:45.417Z,6.87
2019-01-17T14:19:14.963Z,9.67
2019-01-17T14:21:44.488Z,8.13
2019-01-17T14:24:14.099Z,9.73
2019-01-17T14:26:43.644Z,10.50
2019-01-17T14:29:13.184Z,7.97
2019-01-17T14:31:42.707Z,2.03
2019-01-17T14:34:12.228Z,1.93
2019-01-17T14:36:41.743Z,2.67
2019-01-17T14:39:12.462Z,2.53
2019-01-17T14:41:42.097Z,6.77
2019-01-17T14:44:11.684Z,2.60
2019-01-17T14:46:41.212Z,4.13
2019-01-17T14:49:11.165Z,6.77
2019-01-17T14:51:40.817Z,10.53
2019-01-17T14:54:10.338Z,7.93
2019-01-17T14:56:39.866Z,7.70
2019-01-17T14:59:09.456Z,11.87
2019-01-17T15:01:39.426Z,6.63
2019-01-17T15:04:08.896Z,3.97
2019-01-17T15:06:38.473Z,7.53
2019-01-17T15:09:08.977Z,4.50
2019-01-17T15:11:38.566Z,10.27
2019-01-17T15:14:08.494Z,8.03
2019-01-17T15:16:38.211Z,9.83
2019-01-17T15:19:08.234Z,6.33
2019-01-17T15:21:38.310Z,7.23
2019-01-17T15:24:07.844Z,5.87
2019-01-17T15:26:37.770Z,9.00
2019-01-17T15:29:07.337Z,6.80
2019-01-17T15:31:37.598Z,6.03
2019-01-17T15:34:07.142Z,9.07
2019-01-17T15:36:36.672Z,10.23
2019-01-17T15:39:09.144Z,9.63
2019-01-17T15:41:38.959Z,14.97
2019-01-17T15:44:08.467Z,8.10
2019-01-17T15:46:38.032Z,12.60
2019-01-17T15:49:07.539Z,13.63
2019-01-17T15:51:37.130Z,18.30
2019-01-17T15:54:06.943Z,17.23
2019-01-17T15:56:36.509Z,26.20
2019-01-17T15:59:06.037Z,38.37
2019-01-17T16:01:35.550Z,20.73
2019-01-17T16:04:05.099Z,30.57
2019-01-17T16:06:34.979Z,12.33
2019-01-17T16:09:05.595Z,10.20
2019-01-17T16:11:35.139Z,17.70
2019-01-17T16:14:04.870Z,15.93
2019-01-17T16:16:34.729Z,17.53
2019-01-17T16:19:04.328Z,13.80
2019-01-17T16:21:33.860Z,8.73
2019-01-17T16:24:03.424Z,12.53
2019-01-17T16:26:33.048Z,15.60
2019-01-17T16:29:02.608Z,24.07
2019-01-17T16:31:32.088Z,16.07
2019-01-17T16:34:01.576Z,7.03
2019-01-17T16:36:31.150Z,10.40
2019-01-17T16:39:00.681Z,10.33
2019-01-17T16:41:30.234Z,7.77
2019-01-17T16:43:59.752Z,5.27
2019-01-17T16:46:29.416Z,5.17
2019-01-17T16:48:58.899Z,8.90
2019-01-17T16:51:28.445Z,5.53
2019-01-17T16:54:07.229Z,6.37
2019-01-17T16:56:56.169Z,5.90
2019-01-17T17:02:20.306Z,6.67
2019-01-17T17:04:50.146Z,10.00
2019-01-17T17:07:19.720Z,7.07
2019-01-17T17:09:49.686Z,7.13
2019-01-17T17:12:19.201Z,6.37
2019-01-17T17:14:48.701Z,16.00
2019-01-17T17:17:18.226Z,24.30
2019-01-17T17:19:47.808Z,15.77
2019-01-17T17:22:17.369Z,14.50
2019-01-17T17:24:46.904Z,14.70
2019-01-17T17:27:16.743Z,12.47
2019-01-17T17:29:46.329Z,12.70
2019-01-17T17:32:15.856Z,65.43
2019-01-17T17:34:46.365Z,53.40
2019-01-17T17:37:15.865Z,15.10
2019-01-17T17:39:45.721Z,19.43
2019-01-17T17:42:15.263Z,13.27
2019-01-17T17:44:44.779Z,9.50
2019-01-17T17:47:14.286Z,10.50
2019-01-17T17:49:43.900Z,12.23
2019-01-17T17:52:13.488Z,10.57
2019-01-17T17:54:43.007Z,21.73
2019-01-17T17:57:12.903Z,11.90
2019-01-17T17:59:42.645Z,6.77
2019-01-17T18:02:23.418Z,7.67
2019-01-17T18:04:53.708Z,10.43
2019-01-17T18:07:23.263Z,12.30
2019-01-17T18:09:52.810Z,8.90
2019-01-17T18:12:22.703Z,6.93
2019-01-17T18:14:52.288Z,10.60
2019-01-17T18:17:21.812Z,9.13
2019-01-17T18:19:52.040Z,11.80
2019-01-17T18:22:22.302Z,6.50
2019-01-17T18:24:51.823Z,6.03
2019-01-17T18:27:21.665Z,6.73
2019-01-17T18:29:51.176Z,8.67
2019-01-17T18:32:21.533Z,6.90
2019-01-17T18:34:51.063Z,6.53
2019-01-17T18:37:20.609Z,7.53
2019-01-17T18:39:50.257Z,8.27
2019-01-17T18:42:19.790Z,6.77
2019-01-17T18:44:49.328Z,5.17
2019-01-17T18:47:18.839Z,8.33
2019-01-17T18:49:48.546Z,6.70
2019-01-17T18:52:18.567Z,4.43
2019-01-17T18:54:48.409Z,3.63
2019-01-17T18:57:18.421Z,8.53
2019-01-17T18:59:48.059Z,5.90
2019-01-17T19:02:17.581Z,5.73
2019-01-17T19:04:47.132Z,16.80
2019-01-17T19:07:17.225Z,11.87
2019-01-17T19:09:46.747Z,9.05
2019-01-17T19:12:16.563Z,11.40
2019-01-17T19:14:46.126Z,6.93
2019-01-17T19:17:15.655Z,7.40
2019-01-17T19:19:45.159Z,7.40
2019-01-17T19:22:14.893Z,4.13
2019-01-17T19:24:44.420Z,12.57
2019-01-17T19:27:14.000Z,9.03
2019-01-17T19:29:43.592Z,8.00
2019-01-17T19:32:13.200Z,8.03
2019-01-17T19:34:42.731Z,8.90
2019-01-17T19:37:12.386Z,11.23
2019-01-17T19:39:42.033Z,6.50
2019-01-17T19:42:12.074Z,5.87
2019-01-17T19:44:41.956Z,5.90
2019-01-17T19:47:11.488Z,4.90
2019-01-17T19:49:41.408Z,13.73
2019-01-17T19:52:11.396Z,7.80
2019-01-17T19:54:40.939Z,6.83
2019-01-17T19:57:10.464Z,5.27
2019-01-17T19:59:40.138Z,5.00
2019-01-17T20:02:09.689Z,4.13
2019-01-17T20:04:41.838Z,12.03
2019-01-17T20:07:10.449Z,7.47
2019-01-17T20:09:40.313Z,6.70
2019-01-17T20:12:10.086Z,3.97
2019-01-17T20:14:39.591Z,8.13
2019-01-17T20:17:09.799Z,2.63
2019-01-17T20:19:39.789Z,5.70
2019-01-17T20:22:09.643Z,7.00
2019-01-17T20:24:39.263Z,3.80
2019-01-17T20:27:08.949Z,4.90
2019-01-17T20:29:38.481Z,7.70
2019-01-17T20:32:08.425Z,8.07
2019-01-17T20:34:38.204Z,4.30
2019-01-17T20:37:08.168Z,8.40
2019-01-17T20:39:37.664Z,4.70
2019-01-17T20:42:07.312Z,7.37
2019-01-17T20:44:36.898Z,5.00
2019-01-17T20:47:06.777Z,3.33
2019-01-17T20:49:36.470Z,5.00
2019-01-17T20:52:06.171Z,8.03
2019-01-17T20:54:35.667Z,4.93
2019-01-17T20:57:05.845Z,5.30
2019-01-17T20:59:35.359Z,5.87
2019-01-17T21:02:20.922Z,4.23
2019-01-17T21:04:51.857Z,10.73
2019-01-17T21:07:21.432Z,3.67
2019-01-17T21:09:51.056Z,7.30
2019-01-17T21:12:20.852Z,6.33
2019-01-17T21:14:51.137Z,5.90
2019-01-17T21:17:20.659Z,6.60
2019-01-17T21:19:50.226Z,9.30
2019-01-17T21:22:19.773Z,6.33
2019-01-17T21:24:49.325Z,6.53
2019-01-17T21:27:18.902Z,7.10
2019-01-17T21:29:48.457Z,8.13
2019-01-17T21:32:17.975Z,9.63
2019-01-17T21:34:48.076Z,11.60
2019-01-17T21:37:17.592Z,4.70
2019-01-17T21:39:47.340Z,11.37
2019-01-17T21:42:16.892Z,6.40
2019-01-17T21:44:47.057Z,9.33
2019-01-17T21:47:16.579Z,5.30
2019-01-17T21:49:46.600Z,8.90
2019-01-17T21:52:16.096Z,9.23
2019-01-17T21:54:45.612Z,6.90
2019-01-17T21:57:15.849Z,6.07
2019-01-17T21:59:45.394Z,5.63
2019-01-17T22:02:14.960Z,7.33
2019-01-17T22:04:44.501Z,8.47
2019-01-17T22:07:14.037Z,4.83
2019-01-17T22:09:44.032Z,8.07
2019-01-17T22:12:13.580Z,8.60
2019-01-17T22:14:43.281Z,6.03
2019-01-17T22:17:12.846Z,8.30
2019-01-17T22:19:42.311Z,5.77
2019-01-17T22:22:12.447Z,6.37
2019-01-17T22:24:42.010Z,5.53
2019-01-17T22:27:11.590Z,5.10
2019-01-17T22:29:41.956Z,4.73
2019-01-17T22:32:11.502Z,7.27
2019-01-17T22:34:41.001Z,3.63
2019-01-17T22:37:10.512Z,6.13
2019-01-17T22:39:40.020Z,7.37
2019-01-17T22:42:09.575Z,5.70
2019-01-17T22:44:39.127Z,5.33
2019-01-17T22:47:08.595Z,3.63
2019-01-17T22:49:38.280Z,4.30
2019-01-17T22:52:07.916Z,5.93
2019-01-17T22:54:37.487Z,11.30
2019-01-17T22:57:07.533Z,5.53
2019-01-17T22:59:37.080Z,3.90
2019-01-17T23:02:06.919Z,5.90
2019-01-17T23:04:36.451Z,3.60
2019-01-17T23:07:06.017Z,6.30
2019-01-17T23:09:35.562Z,5.53
2019-01-17T23:12:05.584Z,7.10
2019-01-17T23:14:35.193Z,7.43
2019-01-17T23:17:04.852Z,9.80
2019-01-17T23:19:34.484Z,5.63
2019-01-17T23:22:04.244Z,8.07
2019-01-17T23:24:34.342Z,7.13
2019-01-17T23:27:04.031Z,8.77
2019-01-17T23:29:33.528Z,7.10
2019-01-17T23:32:03.368Z,8.80
2019-01-17T23:34:33.018Z,10.30
2019-01-17T23:37:02.861Z,6.87
2019-01-17T23:39:32.366Z,5.70
2019-01-17T23:42:01.879Z,5.57
2019-01-17T23:44:31.889Z,8.50
2019-01-17T23:47:01.379Z,3.40
2019-01-17T23:49:30.948Z,4.73
2019-01-17T23:52:00.444Z,5.53
2019-01-17T23:54:29.945Z,6.13
2019-01-17T23:56:59.492Z,10.07
2019-01-17T23:59:29.020Z,5.00
